BLM weather

Bahia De Los Angelos South
Baja California, Mexico

Public forecast

Using degrees Celsius for public forecast. Weather courtesy of forecast.io.

Closest aviation weather report (METAR) to Bahia De Los Angelos South

Closest report is General Ignacio P. Garcia International Airport, 130.8 nm (242.3 km) E. Retrieved 2020/05/27 21:40 UTC (47 minutes ago):

MMHO 272140Z 22004KT 10SM SKC 40/07 A2982

Closest aviation forecast (TAF) to Bahia De Los Angelos South

Closest forecast is General Ignacio P. Garcia International Airport, 130.8 nm (242.3 km) E. Retrieved 2020/05/27 18:06 UTC (4 hours ago):

TAF MMHO 271658Z 2718/2818 26010KT P6SM SKC BECMG 2806/2807 08008KT